Terminal Aerodrome Forecast
Issued by NWS

Home | Current Version | Previous Version | Text Only | Print | Product List | Glossary On
Versions: 1 2 3 4 5 6 7 8 9 10 11 12 13 14
000
FTPQ31 PGUM 222337
TAFGUM
TAF

TAF
PTRO 222337Z 2300/2324 VRB06KT 6SM -RA VCTS SCT014CB BKN040 OVC080
      TEMPO 2300/2304 VRB12KT 3SM +SHRA BKN012 OVC025
     FM230600 VRB05KT P6SM VCSH SCT016 BKN050 OVC100=

USA.gov is the U.S. government's official web portal to all federal, state and local government web resources and services.